createdAt,value
2019-03-15T00:00:35.269Z,73.74
2019-03-15T00:03:05.679Z,73.57
2019-03-15T00:05:38.910Z,73.43
2019-03-15T00:08:09.462Z,73.66
2019-03-15T00:10:40.055Z,74.00
2019-03-15T00:13:10.348Z,73.88
2019-03-15T00:15:40.608Z,73.99
2019-03-15T00:18:10.897Z,73.79
2019-03-15T00:20:41.603Z,73.42
2019-03-15T00:23:12.025Z,73.59
2019-03-15T00:25:43.563Z,73.52
2019-03-15T00:28:13.937Z,73.72
2019-03-15T00:30:44.157Z,73.88
2019-03-15T00:33:15.584Z,73.95
2019-03-15T00:35:46.067Z,74.35
2019-03-15T00:38:16.229Z,74.68
2019-03-15T00:40:47.093Z,74.60
2019-03-15T00:43:20.476Z,74.89
2019-03-15T00:45:51.893Z,74.74
2019-03-15T00:48:22.171Z,74.27
2019-03-15T00:50:52.669Z,74.06
2019-03-15T00:53:23.170Z,73.92
2019-03-15T00:55:53.675Z,73.79
2019-03-15T00:58:24.067Z,73.76
2019-03-15T01:00:54.669Z,73.67
2019-03-15T01:03:25.032Z,73.77
2019-03-15T01:05:55.409Z,73.79
2019-03-15T01:08:25.797Z,73.58
2019-03-15T01:10:56.189Z,73.41
2019-03-15T01:13:26.477Z,73.55
2019-03-15T01:15:57.127Z,73.29
2019-03-15T01:18:27.579Z,73.43
2019-03-15T01:20:59.550Z,73.38
2019-03-15T01:23:29.801Z,73.58
2019-03-15T01:26:00.282Z,73.69
2019-03-15T01:28:30.549Z,73.67
2019-03-15T01:31:01.451Z,73.79
2019-03-15T01:33:31.836Z,73.75
2019-03-15T01:36:04.376Z,73.75
2019-03-15T01:38:37.354Z,73.29
2019-03-15T01:41:08.285Z,73.59
2019-03-15T01:43:40.105Z,73.63
2019-03-15T01:46:10.934Z,73.63
2019-03-15T01:48:41.184Z,73.53
2019-03-15T01:51:11.603Z,73.75
2019-03-15T01:53:43.268Z,74.05
2019-03-15T01:56:13.790Z,74.37
2019-03-15T01:58:44.314Z,74.57
2019-03-15T02:01:14.930Z,74.73
2019-03-15T02:03:45.471Z,74.66
2019-03-15T02:06:15.810Z,74.99
2019-03-15T02:08:46.076Z,75.10
2019-03-15T02:11:16.248Z,75.31
2019-03-15T02:13:46.760Z,75.37
2019-03-15T02:16:17.368Z,75.48
2019-03-15T02:18:47.833Z,75.37
2019-03-15T02:21:18.585Z,75.50
2019-03-15T02:23:48.874Z,75.67
2019-03-15T02:26:19.314Z,75.57
2019-03-15T02:28:53.035Z,75.82
2019-03-15T02:31:23.971Z,75.90
2019-03-15T02:33:54.411Z,75.83
2019-03-15T02:36:24.727Z,76.02
2019-03-15T02:38:58.853Z,76.00
2019-03-15T02:41:30.390Z,76.16
2019-03-15T02:44:00.804Z,76.10
2019-03-15T02:46:31.106Z,76.37
2019-03-15T02:49:02.048Z,76.25
2019-03-15T02:51:32.756Z,76.33
2019-03-15T02:54:03.245Z,76.46
2019-03-15T02:56:34.540Z,76.31
2019-03-15T02:59:04.982Z,76.35
2019-03-15T03:01:38.987Z,76.24
2019-03-15T03:04:09.387Z,76.39
2019-03-15T03:06:39.696Z,76.08
2019-03-15T03:09:10.275Z,75.76
2019-03-15T03:11:40.571Z,75.47
2019-03-15T03:14:10.982Z,75.29
2019-03-15T03:16:44.201Z,75.28
2019-03-15T03:19:14.535Z,75.44
2019-03-15T03:21:47.014Z,75.62
2019-03-15T03:24:17.351Z,75.92
2019-03-15T03:26:47.760Z,75.67
2019-03-15T03:29:20.405Z,75.68
2019-03-15T03:31:50.740Z,75.46
2019-03-15T03:34:20.914Z,75.46
2019-03-15T03:36:52.313Z,75.33
2019-03-15T03:39:22.838Z,75.26
2019-03-15T03:41:55.035Z,74.95
2019-03-15T03:44:26.170Z,74.92
2019-03-15T03:46:59.366Z,74.90
2019-03-15T03:49:29.644Z,74.62
2019-03-15T03:52:00.005Z,74.61
2019-03-15T03:54:30.677Z,74.42
2019-03-15T03:57:01.656Z,74.29
2019-03-15T03:59:36.178Z,74.40
2019-03-15T04:02:06.484Z,74.55
2019-03-15T04:04:37.204Z,74.50
2019-03-15T04:07:08.564Z,74.18
2019-03-15T04:09:38.889Z,74.00
2019-03-15T04:12:09.399Z,74.12
2019-03-15T04:14:44.730Z,74.14
2019-03-15T04:17:16.003Z,74.17
2019-03-15T04:19:46.413Z,74.34
2019-03-15T04:22:16.888Z,74.18
2019-03-15T04:24:53.398Z,74.42
2019-03-15T04:27:25.337Z,74.56
2019-03-15T04:29:57.810Z,74.70
2019-03-15T04:32:31.002Z,74.38
2019-03-15T04:35:01.333Z,74.49
2019-03-15T04:37:32.925Z,74.57
2019-03-15T04:40:06.029Z,74.42
2019-03-15T04:42:40.498Z,74.52
2019-03-15T04:45:12.787Z,74.29
2019-03-15T04:47:44.802Z,74.44
2019-03-15T04:50:15.281Z,74.38
2019-03-15T04:52:45.561Z,74.51
2019-03-15T04:55:35.960Z,74.36
2019-03-15T05:03:45.903Z,74.73
2019-03-15T05:06:16.349Z,74.62
2019-03-15T05:08:46.589Z,74.57
2019-03-15T05:11:19.053Z,74.47
2019-03-15T05:13:51.868Z,74.20
2019-03-15T05:16:22.261Z,74.21
2019-03-15T05:18:52.639Z,74.43
2019-03-15T05:21:22.967Z,74.24
2019-03-15T05:23:53.220Z,74.21
2019-03-15T05:26:23.513Z,74.08
2019-03-15T05:28:54.391Z,73.81
2019-03-15T05:31:24.936Z,73.80
2019-03-15T05:33:55.587Z,74.06
2019-03-15T05:36:29.005Z,74.12
2019-03-15T05:38:59.323Z,74.10
2019-03-15T05:41:29.815Z,74.26
2019-03-15T05:44:00.240Z,74.46
2019-03-15T05:46:31.111Z,74.57
2019-03-15T05:49:05.868Z,74.39
2019-03-15T05:51:36.884Z,74.47
2019-03-15T05:54:09.692Z,74.17
2019-03-15T05:56:39.960Z,74.04
2019-03-15T05:59:10.286Z,73.88
2019-03-15T06:01:41.351Z,73.69
2019-03-15T06:04:11.692Z,73.52
2019-03-15T06:06:42.143Z,73.55
2019-03-15T06:09:12.648Z,73.40
2019-03-15T06:11:42.986Z,73.20
2019-03-15T06:14:13.818Z,72.82
2019-03-15T06:16:44.240Z,72.83
2019-03-15T06:19:14.569Z,72.60
2019-03-15T06:21:44.908Z,72.33
2019-03-15T06:24:15.327Z,72.04
2019-03-15T06:26:45.905Z,71.85
2019-03-15T06:29:16.730Z,71.75
2019-03-15T06:31:51.218Z,71.88
2019-03-15T06:34:21.663Z,71.82
2019-03-15T06:36:52.107Z,71.60
2019-03-15T06:39:22.402Z,71.36
2019-03-15T06:41:53.694Z,71.50
2019-03-15T06:44:24.154Z,71.52
2019-03-15T06:46:54.853Z,71.43
2019-03-15T06:49:25.401Z,71.44
2019-03-15T06:51:57.502Z,71.07
2019-03-15T06:54:27.810Z,71.17
2019-03-15T06:56:58.235Z,70.68
2019-03-15T06:59:30.996Z,70.16
2019-03-15T07:02:01.407Z,69.79
2019-03-15T07:04:31.805Z,69.83
2019-03-15T07:07:03.150Z,69.48
2019-03-15T07:09:33.471Z,69.30
2019-03-15T07:12:09.476Z,69.03
2019-03-15T07:14:36.142Z,69.05
2019-03-15T07:17:06.832Z,69.13
2019-03-15T07:19:37.443Z,68.50
2019-03-15T07:22:08.253Z,69.12
2019-03-15T07:24:38.516Z,67.80
2019-03-15T07:27:13.160Z,67.23
2019-03-15T07:29:40.897Z,67.05
2019-03-15T07:32:11.091Z,66.94
2019-03-15T07:34:41.618Z,66.75
2019-03-15T07:37:12.025Z,65.70
2019-03-15T07:39:42.816Z,65.94
2019-03-15T07:42:13.206Z,65.95
2019-03-15T07:44:45.374Z,65.75
2019-03-15T07:47:18.089Z,66.06
2019-03-15T07:49:48.636Z,66.24
2019-03-15T07:52:18.910Z,65.89
2019-03-15T07:54:49.189Z,65.63
2019-03-15T07:57:19.576Z,65.76
2019-03-15T07:59:49.995Z,65.02
2019-03-15T08:02:20.460Z,65.65
2019-03-15T08:04:50.709Z,65.42
2019-03-15T08:07:35.357Z,64.95
2019-03-15T08:09:53.212Z,65.40
2019-03-15T08:12:26.198Z,65.32
2019-03-15T08:14:56.429Z,66.74
2019-03-15T08:17:27.852Z,64.64
2019-03-15T08:19:58.106Z,64.81
2019-03-15T08:22:29.423Z,64.75
2019-03-15T08:24:59.780Z,64.24
2019-03-15T08:27:30.168Z,64.84
2019-03-15T08:30:01.409Z,65.36
2019-03-15T08:32:34.865Z,64.50
2019-03-15T08:35:05.740Z,65.33
2019-03-15T08:37:36.002Z,65.27
2019-03-15T08:40:07.019Z,65.87
2019-03-15T08:42:37.357Z,67.14
2019-03-15T08:45:20.894Z,67.19
2019-03-15T08:47:51.213Z,67.57
2019-03-15T08:50:24.365Z,67.36
2019-03-15T08:52:54.419Z,67.73
2019-03-15T08:55:25.488Z,68.29
2019-03-15T08:57:55.925Z,67.96
2019-03-15T09:00:28.418Z,68.43
2019-03-15T09:02:58.649Z,70.25
2019-03-15T09:05:29.189Z,69.42
2019-03-15T09:08:01.461Z,70.24
2019-03-15T09:10:31.795Z,69.41
2019-03-15T09:13:04.036Z,69.59
2019-03-15T09:15:34.312Z,68.68
2019-03-15T09:18:04.700Z,69.40
2019-03-15T09:20:34.993Z,69.27
2019-03-15T09:23:05.562Z,69.53
2019-03-15T09:25:43.295Z,71.03
2019-03-15T09:28:20.341Z,70.30
2019-03-15T09:30:54.929Z,70.58
2019-03-15T09:33:26.250Z,70.09
2019-03-15T09:36:00.245Z,70.27
2019-03-15T09:38:31.610Z,70.63
2019-03-15T09:41:02.031Z,70.71
2019-03-15T09:43:32.783Z,70.89
2019-03-15T09:46:07.611Z,72.35
2019-03-15T09:48:39.161Z,71.33
2019-03-15T09:51:09.663Z,71.11
2019-03-15T09:53:40.465Z,70.00
2019-03-15T09:56:10.669Z,70.33
2019-03-15T09:58:40.976Z,70.38
2019-03-15T10:01:11.555Z,70.02
2019-03-15T10:03:42.109Z,70.07
2019-03-15T10:06:16.536Z,70.56
2019-03-15T10:08:45.264Z,70.55
2019-03-15T10:11:19.273Z,70.31
2019-03-15T10:13:50.594Z,70.40
2019-03-15T10:16:21.060Z,69.66
2019-03-15T10:18:54.867Z,69.66
2019-03-15T10:21:25.374Z,69.64
2019-03-15T10:23:58.583Z,69.68
2019-03-15T10:26:32.134Z,70.91
2019-03-15T10:29:14.801Z,71.34
2019-03-15T10:31:35.914Z,71.42
2019-03-15T10:34:06.853Z,73.18
2019-03-15T10:36:37.842Z,73.58
2019-03-15T10:39:08.616Z,74.21
2019-03-15T10:41:39.429Z,74.11
2019-03-15T10:44:10.438Z,75.10
2019-03-15T10:46:41.181Z,76.54
2019-03-15T10:49:16.094Z,75.85
2019-03-15T10:51:46.496Z,76.42
2019-03-15T10:54:17.854Z,77.49
2019-03-15T10:56:49.639Z,77.37
2019-03-15T10:59:19.924Z,76.69
2019-03-15T11:01:51.342Z,77.98
2019-03-15T11:04:22.206Z,77.47
2019-03-15T11:06:52.484Z,77.54
2019-03-15T11:09:23.911Z,76.67
2019-03-15T11:11:54.267Z,76.28
2019-03-15T11:14:24.468Z,76.65
2019-03-15T11:16:54.672Z,76.98
2019-03-15T11:19:25.060Z,77.35
2019-03-15T11:21:55.242Z,77.34
2019-03-15T11:24:25.540Z,76.71
2019-03-15T11:26:57.251Z,76.25
2019-03-15T11:29:27.569Z,76.78
2019-03-15T11:31:57.931Z,76.23
2019-03-15T11:34:28.724Z,76.89
2019-03-15T11:36:59.097Z,76.96
2019-03-15T11:39:29.422Z,77.59
2019-03-15T11:41:59.740Z,77.68
2019-03-15T11:44:30.007Z,77.63
2019-03-15T11:47:00.615Z,79.24
2019-03-15T11:49:30.896Z,79.62
2019-03-15T11:52:01.261Z,79.46
2019-03-15T11:54:32.438Z,80.02
2019-03-15T11:57:13.837Z,79.73
2019-03-15T11:59:44.545Z,79.34
2019-03-15T12:02:21.965Z,79.41
2019-03-15T12:04:53.443Z,79.91
2019-03-15T12:07:25.948Z,80.22
2019-03-15T12:10:00.875Z,80.61
2019-03-15T12:12:33.018Z,80.48
2019-03-15T12:15:07.039Z,80.36
2019-03-15T12:17:40.623Z,80.43
2019-03-15T12:20:15.359Z,81.10
2019-03-15T12:22:51.286Z,81.83
2019-03-15T12:25:31.294Z,81.78
2019-03-15T12:28:03.949Z,82.04
2019-03-15T12:30:34.840Z,82.55
2019-03-15T12:33:11.291Z,82.71
2019-03-15T12:35:41.743Z,83.09
2019-03-15T12:38:17.918Z,83.25
2019-03-15T12:41:04.816Z,83.42
2019-03-15T12:43:36.201Z,83.21
2019-03-15T12:46:08.729Z,82.61
2019-03-15T12:48:39.891Z,82.71
2019-03-15T12:51:10.591Z,81.33
2019-03-15T12:53:42.925Z,80.29
2019-03-15T12:56:14.841Z,78.30
2019-03-15T12:58:45.418Z,77.95
2019-03-15T13:01:29.967Z,77.31
2019-03-15T13:04:01.895Z,75.14
2019-03-15T13:06:33.985Z,75.40
2019-03-15T13:09:08.791Z,75.95
2019-03-15T13:11:42.917Z,75.81
2019-03-15T13:14:14.103Z,75.60
2019-03-15T13:16:54.043Z,75.85
2019-03-15T13:19:27.837Z,75.66
2019-03-15T13:22:01.499Z,75.31
2019-03-15T13:24:38.705Z,75.30
2019-03-15T13:27:10.772Z,75.98
2019-03-15T13:29:44.773Z,75.45
2019-03-15T13:32:15.939Z,74.80
2019-03-15T13:34:48.138Z,73.49
2019-03-15T13:37:25.433Z,72.95
2019-03-15T13:39:56.239Z,73.47
2019-03-15T13:42:29.326Z,72.85
2019-03-15T13:45:03.340Z,72.03
2019-03-15T13:47:36.315Z,72.90
2019-03-15T13:50:08.486Z,73.47
2019-03-15T13:52:41.341Z,75.36
2019-03-15T13:55:12.145Z,76.42
2019-03-15T13:57:42.554Z,75.73
2019-03-15T14:00:15.385Z,75.03
2019-03-15T14:02:45.866Z,75.28
2019-03-15T14:05:16.292Z,74.61
2019-03-15T14:07:46.791Z,75.02
2019-03-15T14:10:17.418Z,73.88
2019-03-15T14:12:50.176Z,73.63
2019-03-15T14:15:24.133Z,71.84
2019-03-15T14:17:57.803Z,71.10
2019-03-15T14:20:28.233Z,70.15
2019-03-15T14:23:02.666Z,68.96
2019-03-15T14:25:34.239Z,67.41
2019-03-15T14:28:13.230Z,65.79
2019-03-15T14:30:43.489Z,65.10
2019-03-15T14:33:13.970Z,64.45
2019-03-15T14:35:47.560Z,62.68
2019-03-15T14:38:19.946Z,61.83
2019-03-15T14:40:53.649Z,60.31
2019-03-15T14:43:31.093Z,58.75
2019-03-15T14:46:01.912Z,57.05
2019-03-15T14:48:37.887Z,56.41
2019-03-15T14:51:11.668Z,55.78
2019-03-15T14:53:42.633Z,54.42
2019-03-15T14:56:18.072Z,54.91
2019-03-15T14:58:57.111Z,54.87
2019-03-15T15:01:29.209Z,54.19
2019-03-15T15:04:00.434Z,54.86
2019-03-15T15:06:31.441Z,54.80
2019-03-15T15:09:02.618Z,54.86
2019-03-15T15:11:34.408Z,54.45
2019-03-15T15:14:05.470Z,53.84
2019-03-15T15:16:36.261Z,53.32
2019-03-15T15:19:07.255Z,53.22
2019-03-15T15:21:37.710Z,52.83
2019-03-15T15:24:12.219Z,52.42
2019-03-15T15:26:44.280Z,51.96
2019-03-15T15:29:17.753Z,51.65
2019-03-15T15:31:48.425Z,51.29
2019-03-15T15:34:18.763Z,51.65
2019-03-15T15:36:49.613Z,51.58
2019-03-15T15:39:19.897Z,51.48
2019-03-15T15:41:53.353Z,51.33
2019-03-15T15:44:27.130Z,51.47
2019-03-15T15:47:02.173Z,51.81
2019-03-15T15:49:32.825Z,51.57
2019-03-15T15:52:06.040Z,52.16
2019-03-15T15:54:36.278Z,52.40
2019-03-15T15:57:07.041Z,52.33
2019-03-15T15:59:37.525Z,52.18
2019-03-15T16:02:13.117Z,52.09
2019-03-15T16:04:46.917Z,52.78
2019-03-15T16:07:17.446Z,53.06
2019-03-15T16:09:47.923Z,53.49
2019-03-15T16:12:18.194Z,52.88
2019-03-15T16:14:51.452Z,53.33
2019-03-15T16:17:25.168Z,53.22
2019-03-15T16:20:07.123Z,52.94
2019-03-15T16:22:37.793Z,53.15
2019-03-15T16:25:08.115Z,52.24
2019-03-15T16:27:38.727Z,51.79
2019-03-15T16:30:15.996Z,52.25
2019-03-15T16:32:46.545Z,52.40
2019-03-15T16:35:17.265Z,52.13
2019-03-15T16:37:48.663Z,52.13
2019-03-15T16:40:19.303Z,52.26
2019-03-15T16:42:52.641Z,51.99
2019-03-15T16:45:23.222Z,52.12
2019-03-15T16:47:53.971Z,52.72
2019-03-15T16:50:24.518Z,52.49
2019-03-15T16:52:54.961Z,52.77
2019-03-15T16:55:25.531Z,52.48
2019-03-15T16:57:56.149Z,52.50
2019-03-15T17:00:26.617Z,52.88
2019-03-15T17:02:58.589Z,53.02
2019-03-15T17:05:28.832Z,53.36
2019-03-15T17:07:59.485Z,53.21
2019-03-15T17:10:31.619Z,53.01
2019-03-15T17:13:02.180Z,53.73
2019-03-15T17:15:32.599Z,52.98
2019-03-15T17:18:03.145Z,52.37
2019-03-15T17:20:33.531Z,52.38
2019-03-15T17:23:03.955Z,52.30
2019-03-15T17:25:34.191Z,51.74
2019-03-15T17:28:04.419Z,52.08
2019-03-15T17:30:35.686Z,51.08
2019-03-15T17:33:06.406Z,50.76
2019-03-15T17:35:38.042Z,50.65
2019-03-15T17:38:11.222Z,51.24
2019-03-15T17:40:44.751Z,51.91
2019-03-15T17:43:19.577Z,51.22
2019-03-15T17:45:49.838Z,50.76
2019-03-15T17:48:20.990Z,50.64
2019-03-15T17:50:51.711Z,49.63
2019-03-15T17:53:24.419Z,49.80
2019-03-15T17:55:57.925Z,49.81
2019-03-15T17:58:31.862Z,49.62
2019-03-15T18:01:02.160Z,50.28
2019-03-15T18:03:32.718Z,50.29
2019-03-15T18:06:02.925Z,50.44
2019-03-15T18:08:36.152Z,50.98
2019-03-15T18:11:06.591Z,51.37
2019-03-15T18:13:40.440Z,51.88
2019-03-15T18:16:10.693Z,51.09
2019-03-15T18:18:40.965Z,51.00
2019-03-15T18:21:12.134Z,51.29
2019-03-15T18:23:42.562Z,51.20
2019-03-15T18:26:15.445Z,51.42
2019-03-15T18:28:48.505Z,51.46
2019-03-15T18:31:18.658Z,51.98
2019-03-15T18:33:48.849Z,52.18
2019-03-15T18:36:19.217Z,52.25
2019-03-15T18:38:53.397Z,51.86
2019-03-15T18:41:23.728Z,52.42
2019-03-15T18:43:55.497Z,52.88
2019-03-15T18:46:25.744Z,53.00
2019-03-15T18:48:55.980Z,52.79
2019-03-15T18:51:26.348Z,52.46
2019-03-15T18:53:58.572Z,52.89
2019-03-15T18:56:29.415Z,53.40
2019-03-15T18:58:59.729Z,53.27
2019-03-15T19:01:29.964Z,53.43
2019-03-15T19:04:00.467Z,53.86
2019-03-15T19:06:30.669Z,53.99
2019-03-15T19:09:01.667Z,54.21
2019-03-15T19:11:33.601Z,54.00
2019-03-15T19:14:04.151Z,54.26
2019-03-15T19:16:34.950Z,54.75
2019-03-15T19:19:05.229Z,55.06
2019-03-15T19:21:35.554Z,55.40
2019-03-15T19:24:05.721Z,55.97
2019-03-15T19:26:35.863Z,55.62
2019-03-15T19:29:06.176Z,55.71
2019-03-15T19:31:36.501Z,55.92
2019-03-15T19:34:07.931Z,56.37
2019-03-15T19:36:39.385Z,56.23
2019-03-15T19:39:09.928Z,56.20
2019-03-15T19:41:43.238Z,56.31
2019-03-15T19:44:16.667Z,56.80
2019-03-15T19:46:47.117Z,56.82
2019-03-15T19:49:17.451Z,56.50
2019-03-15T19:51:47.970Z,56.34
2019-03-15T19:54:19.374Z,56.33
2019-03-15T19:56:49.559Z,56.48
2019-03-15T19:59:19.950Z,56.71
2019-03-15T20:01:50.253Z,56.92
2019-03-15T20:04:20.474Z,56.83
2019-03-15T20:06:52.873Z,56.80
2019-03-15T20:09:23.190Z,56.93
2019-03-15T20:11:53.322Z,57.04
2019-03-15T20:14:23.486Z,56.48
2019-03-15T20:16:53.755Z,55.44
2019-03-15T20:19:24.053Z,55.15
2019-03-15T20:22:02.919Z,55.56
2019-03-15T20:24:36.696Z,55.69
2019-03-15T20:27:06.333Z,55.53
2019-03-15T20:29:37.573Z,54.46
2019-03-15T20:32:08.355Z,54.44
2019-03-15T20:34:40.424Z,53.30
2019-03-15T20:37:12.345Z,54.26
2019-03-15T20:39:42.574Z,54.26
2019-03-15T20:42:12.772Z,54.54
2019-03-15T20:44:43.721Z,54.39
2019-03-15T20:47:15.610Z,53.68
2019-03-15T20:49:49.470Z,53.16
2019-03-15T20:52:21.428Z,53.32
2019-03-15T20:54:51.878Z,53.50
2019-03-15T20:57:22.232Z,53.51
2019-03-15T20:59:52.559Z,53.71
2019-03-15T21:02:25.452Z,54.26
2019-03-15T21:04:55.878Z,54.82
2019-03-15T21:07:26.039Z,55.39
2019-03-15T21:09:56.341Z,55.72
2019-03-15T21:12:26.460Z,56.17
2019-03-15T21:14:56.657Z,56.57
2019-03-15T21:17:26.935Z,56.62
2019-03-15T21:20:01.570Z,56.62
2019-03-15T21:22:30.424Z,57.01
2019-03-15T21:25:00.650Z,57.21
2019-03-15T21:27:30.970Z,57.33
2019-03-15T21:30:01.208Z,57.44
2019-03-15T21:32:31.587Z,57.44
2019-03-15T21:35:03.549Z,57.78
2019-03-15T21:37:34.834Z,57.85
2019-03-15T21:40:05.159Z,57.81
2019-03-15T21:42:39.146Z,57.90
2019-03-15T21:45:10.368Z,58.10
2019-03-15T21:47:40.585Z,57.97
2019-03-15T21:50:12.447Z,58.11
2019-03-15T21:52:42.640Z,58.25
2019-03-15T21:55:12.914Z,58.37
2019-03-15T21:57:43.110Z,58.26
2019-03-15T22:00:14.230Z,58.30
2019-03-15T22:02:48.845Z,58.34
2019-03-15T22:05:19.881Z,58.56
2019-03-15T22:07:49.990Z,58.92
2019-03-15T22:10:20.169Z,59.06
2019-03-15T22:12:51.719Z,59.15
2019-03-15T22:15:24.416Z,59.38
2019-03-15T22:17:54.597Z,59.71
2019-03-15T22:20:29.222Z,60.02
2019-03-15T22:22:59.305Z,60.37
2019-03-15T22:25:30.188Z,60.43
2019-03-15T22:28:01.076Z,60.70
2019-03-15T22:30:34.003Z,60.95
2019-03-15T22:33:04.284Z,60.97
2019-03-15T22:35:36.633Z,61.04
2019-03-15T22:38:07.237Z,61.10
2019-03-15T22:40:37.609Z,61.33
2019-03-15T22:43:07.985Z,61.34
2019-03-15T22:45:38.135Z,61.11
2019-03-15T22:48:08.278Z,60.95
2019-03-15T22:50:41.939Z,60.88
2019-03-15T22:53:12.077Z,61.01
2019-03-15T22:55:42.432Z,60.81
2019-03-15T22:58:12.674Z,60.87
2019-03-15T23:00:43.333Z,60.94
2019-03-15T23:03:15.252Z,60.86
2019-03-15T23:05:47.787Z,60.86
2019-03-15T23:08:17.692Z,60.94
2019-03-15T23:10:50.374Z,60.74
2019-03-15T23:13:20.607Z,60.62
2019-03-15T23:15:50.784Z,60.70
2019-03-15T23:18:20.988Z,60.83
2019-03-15T23:20:52.086Z,61.00
2019-03-15T23:23:24.403Z,60.96
2019-03-15T23:25:54.577Z,61.08
2019-03-15T23:28:24.898Z,61.46
2019-03-15T23:30:55.187Z,61.69
2019-03-15T23:33:25.476Z,61.78
2019-03-15T23:35:58.565Z,61.98
2019-03-15T23:38:29.152Z,62.08
2019-03-15T23:40:59.685Z,62.04
2019-03-15T23:43:30.067Z,62.34
2019-03-15T23:46:00.471Z,62.58
2019-03-15T23:48:30.756Z,62.63
2019-03-15T23:51:01.248Z,62.66
2019-03-15T23:53:31.556Z,62.63
2019-03-15T23:56:02.025Z,62.90
2019-03-15T23:58:32.310Z,62.57
